Time;durP1;ratioP1;P1;durP2;ratioP2;P2;SDS_P1;SDS_P2;PMS_P1;PMS_P2;Temp;Humidity;BMP_temperature;BMP_pressure;BME280_temperature;BME280_humidity;BME280_pressure;Samples;Min_cycle;Max_cycle;Signal;HPM_P1;HPM_P2
2023/02/09 00:00:03;;;;;;;9.77;7.17;;;3.30;91.10;;;;;;5018030;28;20425;-80
2023/02/09 00:02:29;;;;;;;8.97;7.40;;;3.20;91.10;;;;;;5035273;28;20987;-79
2023/02/09 00:04:54;;;;;;;8.20;7.13;;;3.20;90.70;;;;;;5035144;28;20413;-79
2023/02/09 00:07:20;;;;;;;10.07;7.10;;;3.20;90.40;;;;;;5033808;28;20655;-79
2023/02/09 00:09:46;;;;;;;10.43;7.70;;;3.10;90.50;;;;;;5039636;28;20228;-80
2023/02/09 00:14:56;;;;;;;11.93;7.23;;;3.00;90.60;;;;;;5034363;28;20181;-79
2023/02/09 00:17:21;;;;;;;12.50;7.20;;;3.10;90.90;;;;;;5039456;28;20453;-77
2023/02/09 00:19:47;;;;;;;11.93;7.40;;;3.10;91.00;;;;;;5042975;28;20367;-80
2023/02/09 00:22:13;;;;;;;10.90;7.47;;;3.20;91.20;;;;;;5036589;28;20650;-80
2023/02/09 00:24:38;;;;;;;14.63;8.30;;;3.20;91.50;;;;;;5027196;28;20190;-79
2023/02/09 00:27:04;;;;;;;12.13;8.00;;;3.00;91.80;;;;;;5017734;28;20182;-77
2023/02/09 00:29:30;;;;;;;11.40;7.70;;;3.20;91.80;;;;;;5035347;28;20170;-80
2023/02/09 00:31:55;;;;;;;11.13;7.67;;;2.90;91.70;;;;;;5035057;28;20216;-80
2023/02/09 00:34:21;;;;;;;11.67;7.20;;;2.90;91.70;;;;;;5035247;28;20546;-77
2023/02/09 00:36:47;;;;;;;9.03;6.53;;;2.80;91.90;;;;;;5035395;28;20174;-78
2023/02/09 00:39:12;;;;;;;10.70;7.60;;;3.00;91.70;;;;;;5001681;28;20182;-79
2023/02/09 00:44:22;;;;;;;14.03;8.60;;;3.10;92.20;;;;;;5034683;28;20354;-80
2023/02/09 00:46:48;;;;;;;11.20;8.90;;;3.10;92.20;;;;;;5018115;28;20414;-79
2023/02/09 00:49:14;;;;;;;12.70;8.60;;;3.20;92.10;;;;;;5018558;28;20247;-81
2023/02/09 00:51:40;;;;;;;16.20;8.30;;;2.90;92.10;;;;;;5017681;28;20949;-81
2023/02/09 00:54:05;;;;;;;12.17;8.70;;;2.80;91.90;;;;;;5035043;28;20424;-78
2023/02/09 00:56:31;;;;;;;11.00;8.00;;;2.90;92.30;;;;;;5035772;28;20189;-78
2023/02/09 00:58:57;;;;;;;11.00;7.73;;;2.80;92.40;;;;;;5018211;28;20217;-80
2023/02/09 01:01:22;;;;;;;13.37;8.70;;;2.70;92.20;;;;;;5021393;28;20232;-78
2023/02/09 01:03:48;;;;;;;12.90;8.80;;;2.80;92.50;;;;;;5022328;28;20186;-79
2023/02/09 01:06:14;;;;;;;14.80;9.10;;;2.80;92.50;;;;;;5022290;28;20194;-77
2023/02/09 01:08:39;;;;;;;11.50;8.10;;;2.80;92.50;;;;;;5039487;28;20182;-79
2023/02/09 01:11:10;;;;;;;12.03;8.30;;;2.80;92.20;;;;;;5022021;28;20214;-78
2023/02/09 01:13:37;;;;;;;11.40;8.17;;;2.90;92.60;;;;;;5039566;28;20179;-78
2023/02/09 01:16:15;;;;;;;13.93;8.20;;;2.70;92.80;;;;;;5022733;28;20421;-79
2023/02/09 01:18:41;;;;;;;10.33;8.40;;;2.80;92.90;;;;;;5021621;28;20413;-80
2023/02/09 01:21:19;;;;;;;16.57;9.03;;;2.60;92.90;;;;;;5039253;28;20567;-78
2023/02/09 01:23:46;;;;;;;11.77;8.07;;;2.60;92.90;;;;;;5021172;28;20428;-80
2023/02/09 01:26:14;;;;;;;12.73;8.63;;;2.60;92.90;;;;;;5039496;28;20459;-77
2023/02/09 01:28:40;;;;;;;12.00;9.43;;;2.60;92.80;;;;;;5039541;28;20418;-80
2023/02/09 01:31:27;;;;;;;10.87;8.33;;;2.60;92.90;;;;;;5039389;28;20473;-78
2023/02/09 01:33:55;;;;;;;12.87;8.10;;;2.70;93.10;;;;;;5005573;28;20425;-79
2023/02/09 01:36:21;;;;;;;12.67;8.53;;;2.70;93.00;;;;;;5039858;28;20417;-78
2023/02/09 01:38:47;;;;;;;10.80;7.97;;;2.60;93.20;;;;;;5021422;28;20449;-79
2023/02/09 01:41:13;;;;;;;13.40;8.60;;;2.70;93.10;;;;;;5039888;28;20538;-81
2023/02/09 01:43:48;;;;;;;12.90;8.40;;;2.80;93.20;;;;;;5005121;28;20285;-78
2023/02/09 01:46:13;;;;;;;11.87;8.30;;;2.70;93.30;;;;;;5040664;28;20504;-80
2023/02/09 01:48:39;;;;;;;12.87;8.47;;;2.80;93.60;;;;;;5023026;28;20453;-79
2023/02/09 01:51:05;;;;;;;12.43;8.40;;;2.60;93.30;;;;;;5022969;28;20214;-79
2023/02/09 01:53:31;;;;;;;13.70;8.27;;;2.60;93.30;;;;;;5021623;28;20776;-81
2023/02/09 01:56:04;;;;;;;12.73;8.77;;;2.70;93.50;;;;;;5005982;28;20632;-78
2023/02/09 01:58:31;;;;;;;13.70;8.80;;;2.60;93.20;;;;;;5021726;28;20435;-80
2023/02/09 02:00:57;;;;;;;12.00;8.60;;;2.50;93.20;;;;;;5022215;28;20448;-81
2023/02/09 02:03:25;;;;;;;15.70;8.77;;;2.70;93.50;;;;;;5022302;28;20413;-77
2023/02/09 02:06:02;;;;;;;14.23;8.10;;;2.50;93.60;;;;;;5006453;28;20187;-80
2023/02/09 02:08:46;;;;;;;19.43;9.60;;;2.50;93.30;;;;;;5039682;28;20429;-80
2023/02/09 02:11:13;;;;;;;17.13;9.70;;;2.60;93.40;;;;;;5020986;28;20495;-79
2023/02/09 02:13:38;;;;;;;13.47;9.00;;;2.50;93.70;;;;;;5017142;28;20409;-79
2023/02/09 02:16:44;;;;;;;10.77;8.40;;;2.60;93.90;;;;;;5035069;28;20765;-78
2023/02/09 02:19:28;;;;;;;10.90;8.17;;;2.50;93.90;;;;;;5036480;28;20523;-78
2023/02/09 02:22:17;;;;;;;13.10;9.37;;;2.60;93.80;;;;;;5019361;28;21060;-77
2023/02/09 02:24:55;;;;;;;13.50;8.87;;;2.70;93.70;;;;;;4991838;28;20429;-79
2023/02/09 02:27:49;;;;;;;12.37;9.10;;;2.70;93.90;;;;;;5039149;28;20413;-76
2023/02/09 02:30:45;;;;;;;14.43;8.80;;;2.70;94.10;;;;;;4935856;28;20477;-79
2023/02/09 02:33:21;;;;;;;13.27;9.33;;;2.60;94.20;;;;;;5022444;28;20416;-78
2023/02/09 02:36:13;;;;;;;13.50;8.97;;;2.60;94.10;;;;;;5022918;28;20424;-79
2023/02/09 02:38:59;;;;;;;12.93;10.10;;;2.60;94.20;;;;;;5018709;28;20508;-79
2023/02/09 02:41:25;;;;;;;13.90;10.23;;;2.60;94.40;;;;;;5023104;28;20445;-77
2023/02/09 02:44:07;;;;;;;13.57;9.27;;;2.50;94.40;;;;;;5039930;28;20422;-78
2023/02/09 02:46:42;;;;;;;14.63;8.03;;;2.40;94.10;;;;;;5023279;28;20257;-81
2023/02/09 02:49:20;;;;;;;9.80;7.47;;;2.40;94.20;;;;;;5005984;28;20452;-79
2023/02/09 02:51:49;;;;;;;12.47;8.17;;;2.50;94.40;;;;;;5023477;28;20552;-77
2023/02/09 02:54:24;;;;;;;12.10;8.37;;;2.40;94.30;;;;;;5022861;28;20439;-80
2023/02/09 02:57:02;;;;;;;13.07;8.70;;;2.50;94.20;;;;;;5023075;28;20454;-79
2023/02/09 02:59:33;;;;;;;11.30;8.37;;;2.50;94.40;;;;;;5039111;28;20466;-77
2023/02/09 03:02:21;;;;;;;13.80;9.27;;;2.50;94.60;;;;;;5039811;28;20456;-79
2023/02/09 03:04:51;;;;;;;13.20;8.80;;;2.50;94.50;;;;;;5022486;28;20426;-79
2023/02/09 03:07:17;;;;;;;12.57;8.83;;;2.60;94.70;;;;;;5040279;28;20439;-80
2023/02/09 03:09:51;;;;;;;13.90;8.33;;;2.40;94.60;;;;;;5022538;28;20428;-80
2023/02/09 03:12:41;;;;;;;15.70;8.30;;;2.50;94.40;;;;;;5041840;28;20461;-79
2023/02/09 03:15:09;;;;;;;12.37;8.40;;;2.70;94.50;;;;;;5024765;28;20914;-79
2023/02/09 03:17:38;;;;;;;14.53;9.73;;;2.30;94.30;;;;;;5024233;28;20443;-79
2023/02/09 03:20:13;;;;;;;12.67;9.60;;;2.40;94.60;;;;;;5041705;28;20417;-79
2023/02/09 03:22:46;;;;;;;12.03;8.40;;;2.50;94.70;;;;;;5040590;28;20421;-79
2023/02/09 03:25:30;;;;;;;14.70;8.73;;;2.40;94.60;;;;;;5039183;28;20528;-79
2023/02/09 03:28:07;;;;;;;12.37;8.57;;;2.30;94.60;;;;;;5041032;28;20405;-79
2023/02/09 03:30:34;;;;;;;14.10;8.57;;;2.40;94.90;;;;;;5006607;28;20576;-79
2023/02/09 03:33:02;;;;;;;14.83;9.93;;;2.20;95.00;;;;;;5023906;28;20480;-79
2023/02/09 03:35:35;;;;;;;12.87;8.17;;;2.20;95.20;;;;;;5041405;28;20485;-79
2023/02/09 03:38:05;;;;;;;12.10;8.87;;;2.40;95.40;;;;;;5021737;28;20428;-80
2023/02/09 03:40:32;;;;;;;14.87;9.70;;;2.20;95.20;;;;;;5040864;28;20448;-79
2023/02/09 03:42:59;;;;;;;12.50;8.90;;;2.40;95.20;;;;;;5037248;28;20421;-79
2023/02/09 03:45:24;;;;;;;14.70;10.40;;;2.20;95.10;;;;;;5034850;28;20454;-78
2023/02/09 03:47:50;;;;;;;12.00;8.80;;;2.20;95.20;;;;;;5020765;28;20436;-79
2023/02/09 03:50:16;;;;;;;11.73;8.60;;;2.20;95.30;;;;;;5038151;28;20506;-80
2023/02/09 03:52:41;;;;;;;12.87;9.03;;;2.30;95.30;;;;;;5023369;28;20223;-79
2023/02/09 03:55:07;;;;;;;11.67;8.53;;;2.20;95.30;;;;;;5037971;28;20183;-79
2023/02/09 03:57:34;;;;;;;12.40;8.80;;;2.20;95.40;;;;;;5022878;28;20174;-80
2023/02/09 04:00:00;;;;;;;18.17;9.57;;;2.20;95.50;;;;;;5005384;28;20174;-79
2023/02/09 04:02:26;;;;;;;16.17;10.10;;;2.20;95.30;;;;;;5041513;28;20954;-79
2023/02/09 04:04:52;;;;;;;13.77;9.13;;;2.20;95.30;;;;;;5041455;28;20417;-79
2023/02/09 04:07:18;;;;;;;13.57;9.23;;;2.20;95.50;;;;;;5041414;28;20182;-79
2023/02/09 04:09:43;;;;;;;12.67;8.97;;;2.30;95.50;;;;;;5020166;28;20837;-79
2023/02/09 04:12:09;;;;;;;11.53;8.77;;;2.10;95.50;;;;;;5020323;28;20475;-79
2023/02/09 04:14:35;;;;;;;15.30;9.80;;;1.90;95.30;;;;;;5020836;28;20182;-79
2023/02/09 04:17:01;;;;;;;17.93;9.40;;;2.30;95.80;;;;;;5040867;28;20232;-79
2023/02/09 04:19:26;;;;;;;13.77;9.67;;;2.20;95.90;;;;;;5023340;28;20209;-79
2023/02/09 04:21:52;;;;;;;14.90;9.13;;;2.00;95.80;;;;;;5006586;28;20287;-79
2023/02/09 04:24:18;;;;;;;14.43;9.80;;;2.20;95.90;;;;;;5040711;28;20190;-79
2023/02/09 04:26:43;;;;;;;13.03;9.13;;;2.30;95.80;;;;;;5040775;28;20272;-79
2023/02/09 04:29:09;;;;;;;14.57;8.67;;;2.40;95.80;;;;;;5005612;28;20391;-80
2023/02/09 04:31:35;;;;;;;13.53;9.20;;;2.20;95.60;;;;;;5036608;28;20253;-79
2023/02/09 04:34:01;;;;;;;14.40;8.80;;;2.10;95.80;;;;;;5023894;28;20210;-79
2023/02/09 04:36:26;;;;;;;14.90;10.40;;;2.00;96.20;;;;;;5008826;28;20277;-79
2023/02/09 04:38:52;;;;;;;14.07;9.40;;;2.20;96.10;;;;;;5005502;28;20277;-79
2023/02/09 04:41:18;;;;;;;17.07;10.50;;;2.10;96.10;;;;;;5021392;28;20233;-79
2023/02/09 04:43:45;;;;;;;16.20;9.83;;;2.10;96.20;;;;;;5005408;28;20187;-78
2023/02/09 04:46:12;;;;;;;12.77;9.30;;;2.00;96.20;;;;;;5021446;28;20546;-80
2023/02/09 04:48:38;;;;;;;13.33;9.60;;;2.20;96.40;;;;;;5022110;28;20571;-79
2023/02/09 04:51:04;;;;;;;13.57;9.10;;;2.00;96.40;;;;;;5021241;28;20504;-79
2023/02/09 04:53:29;;;;;;;15.00;9.47;;;2.10;96.40;;;;;;5022034;28;20181;-79
2023/02/09 04:55:55;;;;;;;14.03;9.10;;;2.00;96.30;;;;;;5006000;28;20185;-79
2023/02/09 05:01:06;;;;;;;15.20;9.47;;;1.90;96.60;;;;;;5021368;28;20198;-79
2023/02/09 05:03:32;;;;;;;15.13;10.00;;;2.00;96.80;;;;;;5021900;28;20937;-79
2023/02/09 05:06:03;;;;;;;15.87;10.43;;;2.00;96.70;;;;;;5039752;28;20447;-79
2023/02/09 05:08:29;;;;;;;15.03;9.97;;;2.00;96.70;;;;;;5005509;28;20504;-79
2023/02/09 05:10:55;;;;;;;16.17;10.20;;;2.00;96.90;;;;;;5038731;28;21107;-79
2023/02/09 05:13:23;;;;;;;16.90;10.10;;;1.80;96.90;;;;;;5005115;28;20428;-80
2023/02/09 05:15:49;;;;;;;16.73;10.23;;;2.00;97.00;;;;;;5022995;28;20417;-79
2023/02/09 05:18:15;;;;;;;13.40;8.90;;;1.70;96.70;;;;;;5022692;28;20460;-79
2023/02/09 05:20:42;;;;;;;16.43;10.97;;;1.90;97.00;;;;;;5022887;28;20447;-80
2023/02/09 05:23:09;;;;;;;15.87;9.80;;;1.70;97.00;;;;;;5039377;28;20465;-79
2023/02/09 05:25:34;;;;;;;15.00;10.27;;;1.80;97.20;;;;;;5023196;28;20417;-80
2023/02/09 05:28:00;;;;;;;14.37;9.90;;;1.70;97.30;;;;;;5023457;28;20776;-79
2023/02/09 05:30:26;;;;;;;13.93;9.60;;;1.90;97.30;;;;;;5023281;28;20222;-79
2023/02/09 05:32:52;;;;;;;20.20;10.90;;;1.90;97.40;;;;;;5039997;28;20317;-79
2023/02/09 05:35:19;;;;;;;17.23;10.53;;;1.80;97.30;;;;;;5006274;28;20246;-79
2023/02/09 05:37:44;;;;;;;15.00;10.20;;;1.80;97.40;;;;;;5041047;28;20451;-80
2023/02/09 05:40:10;;;;;;;19.30;10.90;;;1.70;97.40;;;;;;5040562;28;20433;-79
2023/02/09 05:42:36;;;;;;;13.60;10.20;;;1.80;97.50;;;;;;5006739;28;20265;-80
2023/02/09 05:45:02;;;;;;;15.57;11.33;;;1.90;97.90;;;;;;5021879;28;20464;-79
2023/02/09 05:47:28;;;;;;;15.30;10.50;;;1.70;97.40;;;;;;5039898;28;20229;-79
2023/02/09 05:49:54;;;;;;;16.00;10.73;;;1.60;97.20;;;;;;5041030;28;20456;-79
2023/02/09 05:52:21;;;;;;;17.40;10.27;;;1.80;97.40;;;;;;5023349;28;20461;-80
2023/02/09 05:54:47;;;;;;;14.13;10.33;;;1.60;97.40;;;;;;5040187;28;20395;-79
2023/02/09 05:57:14;;;;;;;16.13;10.87;;;1.70;97.40;;;;;;5039675;28;20417;-80
2023/02/09 05:59:40;;;;;;;16.87;9.90;;;1.80;97.50;;;;;;5022868;28;20409;-79
2023/02/09 06:02:05;;;;;;;16.17;10.50;;;1.70;97.30;;;;;;5006516;28;20503;-80
2023/02/09 06:04:32;;;;;;;15.97;10.77;;;1.90;97.50;;;;;;5022955;28;20495;-80
2023/02/09 06:06:58;;;;;;;15.83;11.20;;;1.70;97.30;;;;;;5039065;28;20175;-80
2023/02/09 06:09:24;;;;;;;17.03;10.80;;;1.70;97.90;;;;;;5040104;28;20425;-80
2023/02/09 06:11:49;;;;;;;18.60;11.57;;;1.60;97.60;;;;;;5022542;28;20464;-80
2023/02/09 06:14:16;;;;;;;18.40;11.07;;;1.50;97.70;;;;;;5040099;28;20182;-79
2023/02/09 06:16:42;;;;;;;15.10;10.80;;;1.80;98.10;;;;;;5040008;28;20256;-79
2023/02/09 06:19:12;;;;;;;17.07;10.30;;;1.50;98.00;;;;;;5039528;28;20503;-81
2023/02/09 06:21:38;;;;;;;15.40;10.90;;;1.50;97.90;;;;;;5022979;28;20523;-79
2023/02/09 06:24:04;;;;;;;17.90;11.60;;;1.40;98.00;;;;;;5039521;28;20456;-79
2023/02/09 06:26:29;;;;;;;20.47;12.33;;;1.70;98.00;;;;;;5022840;28;20182;-79
2023/02/09 06:28:55;;;;;;;18.10;11.60;;;1.30;97.90;;;;;;5039694;28;20909;-80
2023/02/09 06:31:20;;;;;;;17.03;10.70;;;1.50;98.00;;;;;;5040857;28;20309;-80
2023/02/09 06:33:46;;;;;;;17.17;11.63;;;1.50;98.20;;;;;;5041141;28;20186;-79
2023/02/09 06:36:12;;;;;;;16.03;10.53;;;1.50;98.20;;;;;;5024209;28;20186;-79
2023/02/09 06:38:37;;;;;;;15.90;11.40;;;1.60;98.20;;;;;;5008792;28;20201;-79
2023/02/09 06:41:04;;;;;;;17.10;11.43;;;1.40;98.20;;;;;;5024153;28;20212;-79
2023/02/09 06:43:30;;;;;;;19.87;10.47;;;1.60;98.40;;;;;;5009133;28;20187;-79
2023/02/09 06:45:56;;;;;;;17.53;11.10;;;1.60;98.50;;;;;;5016749;28;20494;-79
2023/02/09 06:48:22;;;;;;;15.20;10.80;;;1.40;98.30;;;;;;5015095;28;20182;-78
2023/02/09 06:50:47;;;;;;;18.37;12.03;;;1.40;98.50;;;;;;5017683;28;20977;-79
2023/02/09 06:53:13;;;;;;;15.67;10.87;;;1.60;98.30;;;;;;5023335;28;20425;-80
2023/02/09 06:55:39;;;;;;;15.17;10.90;;;1.30;98.40;;;;;;5024151;28;20470;-79
2023/02/09 06:58:05;;;;;;;16.57;11.40;;;1.50;98.50;;;;;;5023052;28;20178;-79
2023/02/09 07:00:30;;;;;;;19.77;11.70;;;1.60;98.80;;;;;;5025026;28;20698;-79
2023/02/09 07:02:58;;;;;;;16.90;11.17;;;1.40;98.40;;;;;;5024958;28;20559;-79
2023/02/09 07:05:24;;;;;;;15.13;10.10;;;1.50;98.50;;;;;;5025507;28;20440;-79
2023/02/09 07:07:49;;;;;;;17.63;11.30;;;1.50;98.40;;;;;;5009087;28;20437;-79
2023/02/09 07:10:17;;;;;;;16.90;12.30;;;1.50;98.60;;;;;;5024726;28;20457;-79
2023/02/09 07:12:43;;;;;;;16.20;10.83;;;1.40;98.60;;;;;;5024496;28;20166;-79
2023/02/09 07:15:10;;;;;;;20.97;12.63;;;1.30;98.40;;;;;;5025741;28;20455;-80
2023/02/09 07:17:36;;;;;;;17.70;12.20;;;1.50;98.40;;;;;;5025730;28;20175;-80
2023/02/09 07:20:02;;;;;;;15.50;11.40;;;1.40;98.40;;;;;;5043416;28;20420;-80
2023/02/09 07:22:29;;;;;;;15.77;11.10;;;1.40;98.60;;;;;;5043046;28;20202;-80
2023/02/09 07:24:55;;;;;;;18.77;12.80;;;1.40;98.70;;;;;;5043533;28;20425;-81
2023/02/09 07:27:21;;;;;;;20.43;12.00;;;1.50;98.80;;;;;;5021031;28;20422;-80
2023/02/09 07:29:47;;;;;;;17.43;11.60;;;1.40;98.60;;;;;;5005380;28;20407;-80
2023/02/09 07:32:13;;;;;;;19.00;11.33;;;1.70;98.50;;;;;;5043391;28;20472;-80
2023/02/09 07:34:38;;;;;;;19.10;10.67;;;1.80;98.40;;;;;;5042789;28;20425;-80
2023/02/09 07:37:04;;;;;;;20.57;12.57;;;1.60;98.20;;;;;;5009833;28;20209;-80
2023/02/09 07:39:30;;;;;;;16.73;10.60;;;1.70;98.30;;;;;;5042519;28;20201;-79
2023/02/09 07:41:56;;;;;;;15.80;11.47;;;1.80;98.50;;;;;;5008502;28;20445;-80
2023/02/09 07:44:23;;;;;;;15.00;9.83;;;2.00;98.80;;;;;;5024350;28;20516;-79
2023/02/09 07:46:48;;;;;;;17.83;11.47;;;1.70;98.50;;;;;;5023877;28;20201;-79
2023/02/09 07:49:14;;;;;;;16.23;11.07;;;2.00;98.60;;;;;;5041565;28;20937;-80
2023/02/09 07:51:40;;;;;;;16.50;10.70;;;2.20;98.50;;;;;;5042615;28;20217;-80
2023/02/09 07:54:07;;;;;;;15.33;11.77;;;2.20;98.20;;;;;;5025241;28;20175;-80
2023/02/09 07:56:33;;;;;;;16.57;11.53;;;2.30;98.00;;;;;;5008810;28;20174;-80
2023/02/09 07:58:59;;;;;;;16.40;10.90;;;2.50;98.00;;;;;;5042113;28;20425;-80
2023/02/09 08:01:25;;;;;;;14.83;11.10;;;2.60;97.50;;;;;;5042714;28;20436;-80
2023/02/09 08:03:50;;;;;;;16.37;11.37;;;2.70;97.40;;;;;;5024448;28;20174;-80
2023/02/09 08:06:31;;;;;;;17.23;12.70;;;2.70;97.00;;;;;;5023504;28;20193;-79
2023/02/09 08:08:59;;;;;;;17.73;11.87;;;2.80;96.90;;;;;;5041251;28;20236;-81
2023/02/09 08:11:39;;;;;;;14.23;10.30;;;3.10;96.90;;;;;;5042245;28;20467;-80
2023/02/09 08:14:09;;;;;;;17.10;11.50;;;2.90;96.60;;;;;;5042149;28;20873;-80
2023/02/09 08:16:35;;;;;;;18.73;11.60;;;3.40;96.70;;;;;;5007323;28;20428;-78
2023/02/09 08:19:30;;;;;;;17.60;12.03;;;3.30;96.30;;;;;;5042338;28;20425;-80
2023/02/09 08:21:56;;;;;;;18.87;12.07;;;3.70;95.50;;;;;;5019329;28;20469;-80
2023/02/09 08:24:22;;;;;;;18.67;11.97;;;3.80;95.10;;;;;;5023784;28;20432;-79
2023/02/09 08:26:48;;;;;;;19.17;13.10;;;3.90;95.00;;;;;;5023597;28;20182;-80
2023/02/09 08:29:14;;;;;;;21.13;11.97;;;3.80;94.60;;;;;;5040769;28;20631;-79
2023/02/09 08:31:39;;;;;;;15.13;10.83;;;4.00;94.50;;;;;;5023418;28;20479;-79
2023/02/09 08:34:05;;;;;;;16.77;11.17;;;4.00;94.60;;;;;;5024035;28;20205;-79
2023/02/09 08:36:31;;;;;;;17.23;11.87;;;4.10;94.50;;;;;;5024036;28;20209;-79
2023/02/09 08:38:56;;;;;;;15.77;11.17;;;4.00;94.40;;;;;;5023498;28;20198;-79
2023/02/09 08:41:22;;;;;;;16.53;11.30;;;4.10;94.00;;;;;;5039691;28;20825;-79
2023/02/09 08:43:50;;;;;;;15.30;10.93;;;4.20;94.00;;;;;;5006526;28;20272;-79
2023/02/09 08:46:17;;;;;;;16.73;12.00;;;4.50;93.50;;;;;;5040035;28;20183;-79
2023/02/09 08:48:45;;;;;;;16.43;12.57;;;4.40;93.50;;;;;;5023200;28;20507;-80
2023/02/09 08:51:13;;;;;;;20.07;12.53;;;4.50;93.40;;;;;;5039975;28;20511;-79
2023/02/09 08:53:39;;;;;;;15.80;10.70;;;4.70;93.30;;;;;;4998933;28;20460;-77
2023/02/09 08:56:05;;;;;;;16.50;12.43;;;4.80;93.50;;;;;;4999541;28;20449;-79
2023/02/09 08:58:32;;;;;;;17.27;11.90;;;4.80;93.20;;;;;;5015854;28;20443;-79
2023/02/09 09:00:59;;;;;;;16.77;11.53;;;5.00;92.90;;;;;;5000609;28;20519;-79
2023/02/09 09:03:28;;;;;;;17.53;11.40;;;5.00;92.50;;;;;;5016167;28;20451;-79
2023/02/09 09:06:01;;;;;;;15.93;11.87;;;5.10;92.20;;;;;;5017648;28;20758;-79
2023/02/09 09:08:27;;;;;;;16.93;11.40;;;5.10;92.00;;;;;;5034794;28;20417;-79
2023/02/09 09:10:53;;;;;;;21.47;15.90;;;5.30;91.70;;;;;;5017409;28;20476;-80
2023/02/09 09:13:19;;;;;;;21.93;15.73;;;5.40;91.70;;;;;;5035008;28;20413;-80
2023/02/09 09:15:45;;;;;;;17.73;11.33;;;5.20;91.20;;;;;;5035276;28;20178;-79
2023/02/09 09:18:11;;;;;;;16.90;12.90;;;5.30;91.70;;;;;;5034691;28;20626;-79
2023/02/09 09:20:41;;;;;;;21.73;13.23;;;5.50;92.00;;;;;;5035739;28;20194;-79
2023/02/09 09:23:10;;;;;;;17.13;11.37;;;5.80;91.60;;;;;;5037648;28;20466;-78
2023/02/09 09:25:37;;;;;;;23.00;15.50;;;5.70;90.80;;;;;;5038822;28;20417;-79
2023/02/09 09:28:03;;;;;;;16.30;12.87;;;5.90;90.60;;;;;;5021413;28;20467;-80
2023/02/09 09:30:29;;;;;;;17.73;12.47;;;6.10;90.60;;;;;;5038589;28;20452;-79
2023/02/09 09:32:55;;;;;;;18.00;12.83;;;6.30;90.70;;;;;;5020797;28;20285;-79
2023/02/09 09:35:20;;;;;;;21.00;13.50;;;6.50;90.00;;;;;;5004718;28;20610;-79
2023/02/09 09:37:46;;;;;;;17.20;10.97;;;6.70;90.00;;;;;;5020744;28;20178;-79
2023/02/09 09:40:22;;;;;;;16.97;13.03;;;6.80;88.80;;;;;;5037658;28;20214;-79
2023/02/09 09:42:53;;;;;;;15.27;11.60;;;6.90;86.90;;;;;;5038623;28;20526;-79
2023/02/09 09:45:23;;;;;;;18.00;12.93;;;7.00;87.10;;;;;;5021034;28;20428;-80
2023/02/09 09:47:49;;;;;;;18.83;12.30;;;6.70;85.60;;;;;;5003695;28;21116;-80
2023/02/09 09:50:26;;;;;;;16.47;12.20;;;6.80;84.80;;;;;;5019828;28;20448;-78
2023/02/09 09:53:00;;;;;;;18.67;12.30;;;7.00;86.40;;;;;;5037143;28;20491;-79
2023/02/09 09:55:29;;;;;;;18.13;12.37;;;6.90;85.40;;;;;;5019953;28;20470;-81
2023/02/09 09:57:58;;;;;;;23.33;17.27;;;7.00;86.40;;;;;;5037662;28;20421;-79
2023/02/09 10:00:39;;;;;;;24.07;16.00;;;6.90;86.90;;;;;;5019698;28;21009;-80
2023/02/09 10:03:16;;;;;;;16.63;11.60;;;7.00;85.50;;;;;;5037225;28;20856;-78
2023/02/09 10:05:43;;;;;;;15.33;11.50;;;6.80;85.00;;;;;;5003433;28;20456;-79
2023/02/09 10:08:09;;;;;;;21.50;13.63;;;7.20;84.50;;;;;;5036696;28;20409;-80
2023/02/09 10:10:59;;;;;;;19.37;13.33;;;7.10;85.00;;;;;;5017751;28;20568;-77
2023/02/09 10:13:36;;;;;;;16.23;11.60;;;7.10;84.30;;;;;;5018499;28;20650;-78
2023/02/09 10:16:02;;;;;;;16.13;10.90;;;7.40;84.20;;;;;;5018324;28;20416;-80
2023/02/09 10:18:29;;;;;;;19.40;13.93;;;7.40;82.70;;;;;;5017157;28;20546;-77
2023/02/09 10:21:09;;;;;;;14.20;10.80;;;7.00;81.30;;;;;;5034930;28;20437;-80
2023/02/09 10:24:03;;;;;;;12.80;9.93;;;7.60;80.50;;;;;;5015712;28;20497;-80
2023/02/09 10:26:33;;;;;;;13.17;10.27;;;7.50;80.00;;;;;;5035019;28;20405;-78
2023/02/09 10:29:18;;;;;;;15.63;10.73;;;7.70;79.50;;;;;;5016370;28;20429;-78
2023/02/09 10:31:49;;;;;;;14.73;11.00;;;7.80;78.60;;;;;;5034401;28;20464;-80
2023/02/09 10:34:36;;;;;;;14.10;10.73;;;7.90;78.60;;;;;;5034803;28;20417;-80
2023/02/09 10:37:20;;;;;;;15.93;11.37;;;8.10;80.10;;;;;;5016736;28;20413;-79
2023/02/09 10:39:56;;;;;;;15.50;11.00;;;8.20;77.60;;;;;;5034228;28;20409;-80
2023/02/09 10:42:27;;;;;;;17.10;11.93;;;8.30;74.30;;;;;;4999964;28;20432;-79
2023/02/09 10:44:55;;;;;;;14.83;10.80;;;8.30;74.20;;;;;;5033898;28;20733;-80
2023/02/09 10:47:23;;;;;;;15.53;10.93;;;8.40;75.90;;;;;;5000227;28;20639;-78
2023/02/09 10:49:58;;;;;;;15.23;10.87;;;8.50;75.40;;;;;;5015568;28;20421;-80
2023/02/09 10:52:25;;;;;;;12.10;9.77;;;8.60;74.60;;;;;;5000387;28;20614;-80
2023/02/09 10:54:56;;;;;;;13.53;10.50;;;8.60;73.00;;;;;;4999235;28;20782;-79
2023/02/09 10:57:29;;;;;;;14.43;10.00;;;8.50;71.80;;;;;;5015740;28;20413;-80
2023/02/09 10:59:58;;;;;;;15.17;11.17;;;8.40;72.60;;;;;;4999570;28;20418;-78
2023/02/09 11:02:40;;;;;;;15.77;10.40;;;8.40;72.70;;;;;;4999730;28;20448;-81
2023/02/09 11:05:21;;;;;;;14.63;10.80;;;8.40;73.30;;;;;;5015677;28;20429;-80
2023/02/09 11:08:02;;;;;;;15.87;9.97;;;8.30;72.10;;;;;;5032969;28;20417;-79
2023/02/09 11:10:31;;;;;;;14.50;11.00;;;8.20;71.80;;;;;;5015482;28;20472;-79
2023/02/09 11:12:58;;;;;;;14.33;9.87;;;8.20;72.70;;;;;;5015803;28;20988;-79
2023/02/09 11:15:37;;;;;;;15.10;10.27;;;8.10;72.40;;;;;;5015573;28;20432;-79
2023/02/09 11:18:15;;;;;;;11.93;9.90;;;8.10;73.20;;;;;;5015129;28;20504;-79
2023/02/09 11:21:13;;;;;;;13.40;9.93;;;8.10;72.60;;;;;;5015471;28;20443;-79
2023/02/09 11:24:09;;;;;;;12.87;9.67;;;8.10;72.20;;;;;;5032549;28;20425;-80
2023/02/09 11:26:53;;;;;;;14.40;9.20;;;8.00;72.60;;;;;;5031736;28;20425;-81
2023/02/09 11:29:28;;;;;;;13.17;10.20;;;8.00;71.10;;;;;;5032042;28;20773;-81
2023/02/09 11:31:57;;;;;;;12.30;9.87;;;7.90;72.20;;;;;;5014385;28;20948;-81
2023/02/09 11:34:41;;;;;;;14.17;9.30;;;8.10;71.40;;;;;;5014544;28;20902;-78
2023/02/09 11:37:28;;;;;;;12.60;9.63;;;8.20;70.70;;;;;;5014422;28;20924;-78
2023/02/09 11:39:57;;;;;;;15.23;9.90;;;8.20;71.30;;;;;;5013924;28;20405;-80
2023/02/09 11:42:44;;;;;;;14.50;9.90;;;8.10;69.50;;;;;;5013908;28;20471;-78
2023/02/09 11:45:32;;;;;;;15.70;10.37;;;8.10;69.70;;;;;;5014238;28;21036;-81
2023/02/09 11:47:58;;;;;;;14.60;10.43;;;7.90;69.90;;;;;;5013722;28;20413;-79
2023/02/09 11:50:27;;;;;;;12.00;8.80;;;7.80;69.90;;;;;;4997253;28;20448;-78
2023/02/09 11:52:58;;;;;;;12.70;9.33;;;7.80;71.40;;;;;;5014390;28;20646;-79
2023/02/09 11:55:40;;;;;;;14.90;9.73;;;8.00;72.80;;;;;;5014585;28;20484;-78
2023/02/09 11:58:24;;;;;;;12.57;9.70;;;8.10;72.90;;;;;;5013839;28;20413;-79
2023/02/09 12:01:18;;;;;;;11.60;8.80;;;8.30;71.10;;;;;;5013671;28;20494;-79
2023/02/09 12:04:00;;;;;;;13.60;9.97;;;8.40;70.00;;;;;;4960800;28;20433;-78
2023/02/09 12:06:52;;;;;;;14.60;10.07;;;8.60;70.50;;;;;;5014039;28;20428;-78
2023/02/09 12:09:32;;;;;;;13.37;9.60;;;8.70;70.60;;;;;;5014108;28;20693;-78
2023/02/09 12:12:26;;;;;;;14.17;10.10;;;8.80;69.40;;;;;;5013612;28;20476;-77
2023/02/09 12:15:04;;;;;;;14.50;10.50;;;8.80;67.20;;;;;;5013950;28;20745;-79
2023/02/09 12:18:07;;;;;;;12.60;9.40;;;8.90;71.70;;;;;;5012394;28;20555;-78
2023/02/09 12:20:35;;;;;;;14.30;9.80;;;9.00;71.00;;;;;;5030794;28;20433;-77
2023/02/09 12:23:16;;;;;;;11.97;9.37;;;9.20;70.90;;;;;;5028169;28;20849;-77
2023/02/09 12:25:54;;;;;;;11.97;9.10;;;9.30;69.60;;;;;;5011203;28;20844;-76
2023/02/09 12:28:28;;;;;;;14.30;10.10;;;9.40;67.80;;;;;;5011095;28;20500;-78
2023/02/09 12:30:58;;;;;;;11.97;8.93;;;9.40;67.60;;;;;;5011337;28;20522;-78
2023/02/09 12:33:24;;;;;;;14.17;10.70;;;9.40;67.30;;;;;;5029803;28;20409;-77
2023/02/09 12:36:33;;;;;;;13.10;9.40;;;9.40;65.90;;;;;;4995859;28;20524;-78
2023/02/09 12:39:00;;;;;;;12.67;9.10;;;9.30;66.30;;;;;;5029347;28;20178;-78
2023/02/09 12:41:34;;;;;;;11.13;8.77;;;9.30;66.30;;;;;;5011770;28;20783;-78
2023/02/09 12:44:08;;;;;;;11.20;8.60;;;9.20;65.50;;;;;;5011829;28;20430;-78
2023/02/09 12:46:43;;;;;;;12.13;9.30;;;9.20;65.90;;;;;;5012128;28;20782;-79
2023/02/09 12:49:16;;;;;;;11.67;9.67;;;9.10;66.40;;;;;;5012079;28;20442;-78
2023/02/09 12:51:45;;;;;;;12.13;9.53;;;9.00;67.40;;;;;;5012072;28;20461;-78
2023/02/09 12:54:32;;;;;;;10.43;8.60;;;9.00;68.00;;;;;;5012027;28;20433;-79
2023/02/09 12:57:17;;;;;;;12.53;9.30;;;9.00;64.90;;;;;;5015434;28;20477;-79
2023/02/09 12:59:52;;;;;;;12.60;9.40;;;9.00;66.00;;;;;;5016428;28;20804;-78
2023/02/09 13:02:26;;;;;;;10.93;8.70;;;8.90;65.50;;;;;;5033999;28;20412;-78
2023/02/09 13:05:16;;;;;;;14.03;9.53;;;8.90;65.00;;;;;;5015803;28;20444;-78
2023/02/09 13:07:50;;;;;;;12.70;9.37;;;8.90;65.50;;;;;;5033631;28;20416;-78